Time;durP1;ratioP1;P1;durP2;ratioP2;P2;SDS_P1;SDS_P2;PMS_P1;PMS_P2;Temp;Humidity;BMP_temperature;BMP_pressure;BME280_temperature;BME280_humidity;BME280_pressure;Samples;Min_cycle;Max_cycle;Signal;HPM_P1;HPM_P2
2022/06/10 00:01:14;;;;;;;;;;;;;;;;;;5053361;28;20006;-88
2022/06/10 00:03:55;;;;;;;;;;;;;;;;;;5047203;28;19925;-89
2022/06/10 00:13:09;;;;;;;;;;;;;;;;;;;;;
2022/06/10 00:58:53;;;;;;;;;;;;;;;;;;5063326;28;19924;-87
2022/06/10 01:04:27;;;;;;;;;;;;;;;;;;5016149;28;20004;-87
2022/06/10 01:06:53;;;;;;;;;;;;;;;;;;5058759;28;19928;-90
2022/06/10 01:09:19;;;;;;;;;;;;;;;;;;5059404;28;19928;-88
2022/06/10 01:11:45;;;;;;;;;;;;;;;;;;5065647;28;20294;-89
2022/06/10 01:14:11;;;;;;;;;;;;;;;;;;5062046;28;20211;-88
2022/06/10 01:16:37;;;;;;;;;;;;;;;;;;5071513;28;20323;-89
2022/06/10 01:19:03;;;;;;;;;;;;;;;;;;5059562;28;19935;-89
2022/06/10 01:21:29;;;;;;;;;;;;;;;;;;5071851;28;19924;-89
2022/06/10 01:23:55;;;;;;;;;;;;;;;;;;5067493;28;19935;-89
2022/06/10 01:26:21;;;;;;;;;;;;;;;;;;5067682;28;20305;-88
2022/06/10 01:28:47;;;;;;;;;;;;;;;;;;5060873;28;20286;-90
2022/06/10 01:31:13;;;;;;;;;;;;;;;;;;5058047;28;20056;-88
2022/06/10 01:33:39;;;;;;;;;;;;;;;;;;5079311;28;19924;-88
2022/06/10 01:36:05;;;;;;;;;;;;;;;;;;5092326;28;19928;-87
2022/06/10 01:38:31;;;;;;;;;;;;;;;;;;5072437;28;19924;-88
2022/06/10 01:40:57;;;;;;;;;;;;;;;;;;5084318;28;20388;-90
2022/06/10 01:43:23;;;;;;;;;;;;;;;;;;5084462;28;19946;-89
2022/06/10 01:45:49;;;;;;;;;;;;;;;;;;5062164;28;19924;-88
2022/06/10 01:48:15;;;;;;;;;;;;;;;;;;5065599;28;19931;-91
2022/06/10 01:50:44;;;;;;;;;;;;;;;;;;5071363;28;19943;-88
2022/06/10 01:53:10;;;;;;;;;;;;;;;;;;5065739;28;19924;-87
2022/06/10 01:55:36;;;;;;;;;;;;;;;;;;5084162;28;20401;-87
2022/06/10 01:58:02;;;;;;;;;;;;;;;;;;5070370;28;19966;-87
2022/06/10 02:00:28;;;;;;;;;;;;;;;;;;5092362;28;20386;-90
2022/06/10 02:02:54;;;;;;;;;;;;;;;;;;5072489;28;19931;-89
2022/06/10 02:05:23;;;;;;;;;;;;;;;;;;5105012;28;19924;-88
2022/06/10 02:07:48;;;;;;;;;;;;;;;;;;5062524;28;19924;-91
2022/06/10 02:10:14;;;;;;;;;;;;;;;;;;5067714;28;19950;-89
2022/06/10 02:12:40;;;;;;;;;;;;;;;;;;5066451;28;20310;-90
2022/06/10 02:15:06;;;;;;;;;;;;;;;;;;5066811;28;19974;-88
2022/06/10 02:17:32;;;;;;;;;;;;;;;;;;5079983;28;20379;-89
2022/06/10 02:19:58;;;;;;;;;;;;;;;;;;5078131;28;20267;-89
2022/06/10 02:22:24;;;;;;;;;;;;;;;;;;5073552;28;19924;-88
2022/06/10 02:24:50;;;;;;;;;;;;;;;;;;5065017;28;19924;-90
2022/06/10 02:27:16;;;;;;;;;;;;;;;;;;5072638;28;19960;-91
2022/06/10 02:29:42;;;;;;;;;;;;;;;;;;5086354;28;19967;-91
2022/06/10 02:32:08;;;;;;;;;;;;;;;;;;5065361;28;19932;-89
2022/06/10 02:34:34;;;;;;;;;;;;;;;;;;5066651;28;20382;-89
2022/06/10 02:37:00;;;;;;;;;;;;;;;;;;5077274;28;19924;-89
2022/06/10 02:39:26;;;;;;;;;;;;;;;;;;5075649;28;19931;-89
2022/06/10 02:41:52;;;;;;;;;;;;;;;;;;5085682;28;19984;-90
2022/06/10 02:44:19;;;;;;;;;;;;;;;;;;5073606;28;19924;-90
2022/06/10 02:46:44;;;;;;;;;;;;;;;;;;5060932;28;19940;-90
2022/06/10 02:49:11;;;;;;;;;;;;;;;;;;5066679;28;19924;-89
2022/06/10 02:51:37;;;;;;;;;;;;;;;;;;5083564;28;19923;-89
2022/06/10 02:54:03;;;;;;;;;;;;;;;;;;5072295;28;19951;-87
2022/06/10 02:56:29;;;;;;;;;;;;;;;;;;5078939;28;19924;-88
2022/06/10 03:01:40;;;;;;;;;;;;;;;;;;5078089;28;19926;-91
2022/06/10 03:04:06;;;;;;;;;;;;;;;;;;5081509;28;20473;-90
2022/06/10 03:06:32;;;;;;;;;;;;;;;;;;5078032;28;19977;-89
2022/06/10 03:08:58;;;;;;;;;;;;;;;;;;5076472;28;19923;-89
2022/06/10 03:11:24;;;;;;;;;;;;;;;;;;5072353;28;19963;-89
2022/06/10 03:13:50;;;;;;;;;;;;;;;;;;5068154;28;19924;-90
2022/06/10 03:16:16;;;;;;;;;;;;;;;;;;5071265;28;20023;-89
2022/06/10 03:18:42;;;;;;;;;;;;;;;;;;5066311;28;20006;-90
2022/06/10 03:21:08;;;;;;;;;;;;;;;;;;5069867;28;20023;-89
2022/06/10 03:23:34;;;;;;;;;;;;;;;;;;5062782;28;19928;-90
2022/06/10 03:26:00;;;;;;;;;;;;;;;;;;5059727;28;20030;-90
2022/06/10 03:28:26;;;;;;;;;;;;;;;;;;5081265;28;19932;-88
2022/06/10 03:30:52;;;;;;;;;;;;;;;;;;5065666;28;19927;-90
2022/06/10 03:33:18;;;;;;;;;;;;;;;;;;5065614;28;20023;-89
2022/06/10 03:35:44;;;;;;;;;;;;;;;;;;5065447;28;19988;-90
2022/06/10 03:38:10;;;;;;;;;;;;;;;;;;5069571;28;19978;-88
2022/06/10 03:40:36;;;;;;;;;;;;;;;;;;5077823;28;20290;-90
2022/06/10 03:43:02;;;;;;;;;;;;;;;;;;5063887;28;19924;-90
2022/06/10 03:45:28;;;;;;;;;;;;;;;;;;5076411;28;19954;-90
2022/06/10 03:47:54;;;;;;;;;;;;;;;;;;5068031;28;20011;-91
2022/06/10 03:50:19;;;;;;;;;;;;;;;;;;5069075;28;19978;-90
2022/06/10 03:52:46;;;;;;;;;;;;;;;;;;5087205;28;19957;-90
2022/06/10 03:55:12;;;;;;;;;;;;;;;;;;5063771;28;19924;-88
2022/06/10 03:57:37;;;;;;;;;;;;;;;;;;5086085;28;20030;-89
2022/06/10 04:00:03;;;;;;;;;;;;;;;;;;5065079;28;19924;-89
2022/06/10 04:02:29;;;;;;;;;;;;;;;;;;5068148;28;20367;-89
2022/06/10 04:04:55;;;;;;;;;;;;;;;;;;5076722;28;19974;-90
2022/06/10 04:07:21;;;;;;;;;;;;;;;;;;5087969;28;19986;-90
2022/06/10 04:09:47;;;;;;;;;;;;;;;;;;5060858;28;19925;-90
2022/06/10 04:12:15;;;;;;;;;;;;;;;;;;5081986;28;20013;-90
2022/06/10 04:14:41;;;;;;;;;;;;;;;;;;5075407;28;19923;-90
2022/06/10 04:17:07;;;;;;;;;;;;;;;;;;5058728;28;20427;-92
2022/06/10 04:19:33;;;;;;;;;;;;;;;;;;5065920;28;20003;-88
2022/06/10 04:21:59;;;;;;;;;;;;;;;;;;5067061;28;19923;-89
2022/06/10 04:24:25;;;;;;;;;;;;;;;;;;5068125;28;19938;-89
2022/06/10 04:26:51;;;;;;;;;;;;;;;;;;5072842;28;19930;-90
2022/06/10 04:29:17;;;;;;;;;;;;;;;;;;5073544;28;19923;-89
2022/06/10 04:31:43;;;;;;;;;;;;;;;;;;5060587;28;19981;-90
2022/06/10 04:34:11;;;;;;;;;;;;;;;;;;5062321;28;19924;-90
2022/06/10 04:36:37;;;;;;;;;;;;;;;;;;5061084;28;19932;-91
2022/06/10 04:39:03;;;;;;;;;;;;;;;;;;5059139;28;19935;-90
2022/06/10 04:41:29;;;;;;;;;;;;;;;;;;5058404;28;19931;-90
2022/06/10 04:43:55;;;;;;;;;;;;;;;;;;5060074;28;19928;-90
2022/06/10 04:46:21;;;;;;;;;;;;;;;;;;5061751;28;19930;-90
2022/06/10 04:48:47;;;;;;;;;;;;;;;;;;5060364;28;19970;-89
2022/06/10 04:51:14;;;;;;;;;;;;;;;;;;5070107;28;19923;-89
2022/06/10 04:53:40;;;;;;;;;;;;;;;;;;5072853;28;19946;-89
2022/06/10 04:56:06;;;;;;;;;;;;;;;;;;5082282;28;19932;-89
2022/06/10 04:58:34;;;;;;;;;;;;;;;;;;5060383;28;20276;-86
2022/06/10 05:01:00;;;;;;;;;;;;;;;;;;5066475;28;19928;-88
2022/06/10 05:03:26;;;;;;;;;;;;;;;;;;5064367;28;19927;-92
2022/06/10 05:05:52;;;;;;;;;;;;;;;;;;5080034;28;19930;-90
2022/06/10 05:08:18;;;;;;;;;;;;;;;;;;5085381;28;19992;-89
2022/06/10 05:10:44;;;;;;;;;;;;;;;;;;5068900;28;20001;-89
2022/06/10 05:13:10;;;;;;;;;;;;;;;;;;5086224;28;19961;-87
2022/06/10 05:15:36;;;;;;;;;;;;;;;;;;5072856;28;20343;-87
2022/06/10 05:18:02;;;;;;;;;;;;;;;;;;5064759;28;19923;-92
2022/06/10 05:20:28;;;;;;;;;;;;;;;;;;5069791;28;20365;-84
2022/06/10 05:22:54;;;;;;;;;;;;;;;;;;5064637;28;20378;-85
2022/06/10 05:25:20;;;;;;;;;;;;;;;;;;5078106;28;20286;-84
2022/06/10 05:27:46;;;;;;;;;;;;;;;;;;5063342;28;19928;-85
2022/06/10 05:30:12;;;;;;;;;;;;;;;;;;5079220;28;20416;-83
2022/06/10 05:32:38;;;;;;;;;;;;;;;;;;5068167;28;19928;-82
2022/06/10 05:35:04;;;;;;;;;;;;;;;;;;5063585;28;19924;-84
2022/06/10 05:37:30;;;;;;;;;;;;;;;;;;5087711;28;19923;-86
2022/06/10 05:39:56;;;;;;;;;;;;;;;;;;5077872;28;20440;-85
2022/06/10 05:42:22;;;;;;;;;;;;;;;;;;5066479;28;20343;-84
2022/06/10 05:44:48;;;;;;;;;;;;;;;;;;5080717;28;20019;-86
2022/06/10 05:47:14;;;;;;;;;;;;;;;;;;5061788;28;19924;-86
2022/06/10 05:49:40;;;;;;;;;;;;;;;;;;5069548;28;19920;-84
2022/06/10 05:52:07;;;;;;;;;;;;;;;;;;5082669;28;19924;-87
2022/06/10 05:54:33;;;;;;;;;;;;;;;;;;5077161;28;19927;-90
2022/06/10 05:56:59;;;;;;;;;;;;;;;;;;5082147;28;19924;-85
2022/06/10 05:59:29;;;;;;;;;;;;;;;;;;5072384;28;19983;-84
2022/06/10 06:01:54;;;;;;;;;;;;;;;;;;5083841;28;20023;-83
2022/06/10 06:04:20;;;;;;;;;;;;;;;;;;5067746;28;19970;-83
2022/06/10 06:06:46;;;;;;;;;;;;;;;;;;5060712;28;19920;-81
2022/06/10 06:09:13;;;;;;;;;;;;;;;;;;5068185;28;20347;-83
2022/06/10 06:11:38;;;;;;;;;;;;;;;;;;5068227;28;19990;-82
2022/06/10 06:14:05;;;;;;;;;;;;;;;;;;5069971;28;19982;-86
2022/06/10 06:16:31;;;;;;;;;;;;;;;;;;5073980;28;19982;-88
2022/06/10 06:18:57;;;;;;;;;;;;;;;;;;5064631;28;20411;-89
2022/06/10 06:21:23;;;;;;;;;;;;;;;;;;5073767;28;20358;-87
2022/06/10 06:23:49;;;;;;;;;;;;;;;;;;5071609;28;20351;-90
2022/06/10 06:26:15;;;;;;;;;;;;;;;;;;5061496;28;19928;-90
2022/06/10 06:28:41;;;;;;;;;;;;;;;;;;5064514;28;19966;-90
2022/06/10 06:31:07;;;;;;;;;;;;;;;;;;5067649;28;19930;-87
2022/06/10 06:33:33;;;;;;;;;;;;;;;;;;5082467;28;19932;-89
2022/06/10 06:35:59;;;;;;;;;;;;;;;;;;5067987;28;20388;-89
2022/06/10 06:38:26;;;;;;;;;;;;;;;;;;5081009;28;20287;-85
2022/06/10 06:40:52;;;;;;;;;;;;;;;;;;5081855;28;19924;-90
2022/06/10 06:43:18;;;;;;;;;;;;;;;;;;5085373;28;19974;-91
2022/06/10 06:45:44;;;;;;;;;;;;;;;;;;5070435;28;20027;-88
2022/06/10 06:48:10;;;;;;;;;;;;;;;;;;5083109;28;20006;-90
2022/06/10 06:50:37;;;;;;;;;;;;;;;;;;5064111;28;19923;-86
2022/06/10 06:53:03;;;;;;;;;;;;;;;;;;5080585;28;19963;-89
2022/06/10 06:55:29;;;;;;;;;;;;;;;;;;5072774;28;19930;-87
2022/06/10 06:57:55;;;;;;;;;;;;;;;;;;5077950;28;21408;-88
2022/06/10 07:00:21;;;;;;;;;;;;;;;;;;5074329;28;19923;-88
2022/06/10 07:02:47;;;;;;;;;;;;;;;;;;5079305;28;19928;-89
2022/06/10 07:05:13;;;;;;;;;;;;;;;;;;5063156;28;19997;-87
2022/06/10 07:07:42;;;;;;;;;;;;;;;;;;5087849;28;19924;-89
2022/06/10 07:10:08;;;;;;;;;;;;;;;;;;5067742;28;20383;-89
2022/06/10 07:12:34;;;;;;;;;;;;;;;;;;5061084;28;19935;-89
2022/06/10 07:15:00;;;;;;;;;;;;;;;;;;5076440;28;19928;-89
2022/06/10 07:17:25;;;;;;;;;;;;;;;;;;5080391;28;19974;-88
2022/06/10 07:19:54;;;;;;;;;;;;;;;;;;5086329;28;19924;-90
2022/06/10 07:22:20;;;;;;;;;;;;;;;;;;5062782;28;19997;-90
2022/06/10 07:24:46;;;;;;;;;;;;;;;;;;5084950;28;19936;-89
2022/06/10 07:27:12;;;;;;;;;;;;;;;;;;5062095;28;20227;-88
2022/06/10 07:29:38;;;;;;;;;;;;;;;;;;5061203;28;19963;-89
2022/06/10 07:32:04;;;;;;;;;;;;;;;;;;5074390;28;19931;-86
2022/06/10 07:34:30;;;;;;;;;;;;;;;;;;5063582;28;20359;-88
2022/06/10 07:36:56;;;;;;;;;;;;;;;;;;5082185;28;19935;-89
2022/06/10 07:39:21;;;;;;;;;;;;;;;;;;5065628;28;19931;-89
2022/06/10 07:41:57;;;;;;;;;;;;;;;;;;5070997;28;20039;-86
2022/06/10 07:44:23;;;;;;;;;;;;;;;;;;5063776;28;20007;-80
2022/06/10 07:46:49;;;;;;;;;;;;;;;;;;5077445;28;20019;-81
2022/06/10 07:49:15;;;;;;;;;;;;;;;;;;5060989;28;20030;-80
2022/06/10 07:51:41;;;;;;;;;;;;;;;;;;5065138;28;19923;-79
2022/06/10 07:54:07;;;;;;;;;;;;;;;;;;5084521;28;19935;-82
2022/06/10 07:56:34;;;;;;;;;;;;;;;;;;5079234;28;19924;-81
2022/06/10 07:59:00;;;;;;;;;;;;;;;;;;5062213;28;19931;-81
2022/06/10 08:01:27;;;;;;;;;;;;;;;;;;5061737;28;19924;-80
2022/06/10 08:03:53;;;;;;;;;;;;;;;;;;5077433;28;19924;-81
2022/06/10 08:06:18;;;;;;;;;;;;;;;;;;5061034;28;20275;-80
2022/06/10 08:08:44;;;;;;;;;;;;;;;;;;5083067;28;20322;-76
2022/06/10 08:11:10;;;;;;;;;;;;;;;;;;5096870;28;19924;-88
2022/06/10 08:13:36;;;;;;;;;;;;;;;;;;5083846;28;19924;-86
2022/06/10 08:16:03;;;;;;;;;;;;;;;;;;5062707;28;19932;-86
2022/06/10 08:18:31;;;;;;;;;;;;;;;;;;5070836;28;20402;-87
2022/06/10 08:23:42;;;;;;;;;;;;;;;;;;5081659;28;19931;-87
2022/06/10 08:26:08;;;;;;;;;;;;;;;;;;5064481;28;19935;-85
2022/06/10 08:28:34;;;;;;;;;;;;;;;;;;5081165;27;19928;-86
2022/06/10 08:31:00;;;;;;;;;;;;;;;;;;5076299;28;19923;-86
2022/06/10 08:33:26;;;;;;;;;;;;;;;;;;5066954;28;19928;-86
2022/06/10 08:35:52;;;;;;;;;;;;;;;;;;5083848;28;20155;-87
2022/06/10 08:38:18;;;;;;;;;;;;;;;;;;5064897;28;19930;-86
2022/06/10 08:40:44;;;;;;;;;;;;;;;;;;5065299;28;19928;-89
2022/06/10 08:43:10;;;;;;;;;;;;;;;;;;5089379;28;19928;-88
2022/06/10 08:45:36;;;;;;;;;;;;;;;;;;5056562;28;19976;-88
2022/06/10 08:48:02;;;;;;;;;;;;;;;;;;5060769;28;20059;-88
2022/06/10 08:50:28;;;;;;;;;;;;;;;;;;5083460;28;19924;-87
2022/06/10 08:52:54;;;;;;;;;;;;;;;;;;5070097;28;19992;-87
2022/06/10 08:55:20;;;;;;;;;;;;;;;;;;5066232;28;19928;-87
2022/06/10 08:57:46;;;;;;;;;;;;;;;;;;5077269;28;20325;-87
2022/06/10 09:00:12;;;;;;;;;;;;;;;;;;5079047;28;19924;-87
2022/06/10 09:02:38;;;;;;;;;;;;;;;;;;5083012;28;19947;-87
2022/06/10 09:05:04;;;;;;;;;;;;;;;;;;5059298;28;19924;-86
2022/06/10 09:07:30;;;;;;;;;;;;;;;;;;5085313;28;19928;-87
2022/06/10 09:09:56;;;;;;;;;;;;;;;;;;5067858;28;20136;-87
2022/06/10 09:12:22;;;;;;;;;;;;;;;;;;5077323;28;20469;-87
2022/06/10 09:14:48;;;;;;;;;;;;;;;;;;5078585;28;19930;-87
2022/06/10 09:17:14;;;;;;;;;;;;;;;;;;5080574;28;21487;-86
2022/06/10 09:19:39;;;;;;;;;;;;;;;;;;5080772;28;19924;-88
2022/06/10 09:22:06;;;;;;;;;;;;;;;;;;5057874;28;19934;-88
2022/06/10 09:24:32;;;;;;;;;;;;;;;;;;5077696;28;19928;-89
2022/06/10 09:26:58;;;;;;;;;;;;;;;;;;5062492;28;20015;-88
2022/06/10 09:29:24;;;;;;;;;;;;;;;;;;5084240;28;20330;-89
2022/06/10 09:31:50;;;;;;;;;;;;;;;;;;5068344;28;20334;-88
2022/06/10 09:34:16;;;;;;;;;;;;;;;;;;5057025;28;19928;-92
2022/06/10 09:36:42;;;;;;;;;;;;;;;;;;5062566;28;20647;-90
2022/06/10 09:40:35;;;;;;;;;;;;;;;;;;5059527;28;19924;-89
2022/06/10 09:41:54;;;;;;;;;;;;;;;;;;5069945;28;19932;-86
2022/06/10 09:44:20;;;;;;;;;;;;;;;;;;5078727;28;19973;-89
2022/06/10 09:46:46;;;;;;;;;;;;;;;;;;5057752;28;19928;-89
2022/06/10 09:49:12;;;;;;;;;;;;;;;;;;5069251;28;20194;-90
2022/06/10 09:51:38;;;;;;;;;;;;;;;;;;5064124;28;19934;-90
2022/06/10 09:54:04;;;;;;;;;;;;;;;;;;5061766;28;19924;-90
2022/06/10 09:56:30;;;;;;;;;;;;;;;;;;5078608;28;19968;-89
2022/06/10 09:58:56;;;;;;;;;;;;;;;;;;5073222;28;19928;-90
2022/06/10 10:01:22;;;;;;;;;;;;;;;;;;5072091;28;20020;-91
2022/06/10 10:03:48;;;;;;;;;;;;;;;;;;5084035;28;19924;-89
2022/06/10 10:06:14;;;;;;;;;;;;;;;;;;5063396;28;19974;-90
2022/06/10 10:08:40;;;;;;;;;;;;;;;;;;5085995;28;19930;-90
2022/06/10 10:11:05;;;;;;;;;;;;;;;;;;5061968;28;19928;-84
2022/06/10 10:13:32;;;;;;;;;;;;;;;;;;5068139;28;20015;-85
2022/06/10 10:15:58;;;;;;;;;;;;;;;;;;5066584;28;19924;-81
2022/06/10 10:18:24;;;;;;;;;;;;;;;;;;5078402;28;19931;-89
2022/06/10 10:20:50;;;;;;;;;;;;;;;;;;5083935;28;20351;-87
2022/06/10 10:23:16;;;;;;;;;;;;;;;;;;5078461;28;19977;-88
2022/06/10 10:25:42;;;;;;;;;;;;;;;;;;5060517;28;20370;-86
2022/06/10 10:28:08;;;;;;;;;;;;;;;;;;5085358;28;19931;-83
2022/06/10 10:30:34;;;;;;;;;;;;;;;;;;5085545;28;19927;-82
2022/06/10 10:33:00;;;;;;;;;;;;;;;;;;5063417;28;20026;-86
2022/06/10 10:35:26;;;;;;;;;;;;;;;;;;5076586;28;19928;-90
2022/06/10 10:37:52;;;;;;;;;;;;;;;;;;5078620;28;20379;-85
2022/06/10 10:40:18;;;;;;;;;;;;;;;;;;5078546;28;19924;-88
2022/06/10 10:42:44;;;;;;;;;;;;;;;;;;5063241;28;20014;-85
2022/06/10 10:45:10;;;;;;;;;;;;;;;;;;5063578;28;20374;-89
2022/06/10 10:47:36;;;;;;;;;;;;;;;;;;5066567;28;19969;-89
2022/06/10 10:50:03;;;;;;;;;;;;;;;;;;5082859;28;20022;-86
2022/06/10 10:52:29;;;;;;;;;;;;;;;;;;5090131;28;20022;-91
2022/06/10 10:54:55;;;;;;;;;;;;;;;;;;5068772;28;20363;-86
2022/06/10 10:57:24;;;;;;;;;;;;;;;;;;5076887;28;19931;-89
2022/06/10 10:59:50;;;;;;;;;;;;;;;;;;5081828;28;20008;-91
2022/06/10 11:02:16;;;;;;;;;;;;;;;;;;5079853;28;20391;-91
2022/06/10 11:04:42;;;;;;;;;;;;;;;;;;5062461;28;19924;-89
2022/06/10 11:07:08;;;;;;;;;;;;;;;;;;5063662;28;19935;-87
2022/06/10 11:09:34;;;;;;;;;;;;;;;;;;5065258;28;20087;-90
2022/06/10 11:12:00;;;;;;;;;;;;;;;;;;5067381;28;19931;-90
2022/06/10 11:14:26;;;;;;;;;;;;;;;;;;5085103;28;19924;-88
2022/06/10 11:16:52;;;;;;;;;;;;;;;;;;5089188;28;19928;-87
2022/06/10 11:19:19;;;;;;;;;;;;;;;;;;5066873;28;19935;-87
2022/06/10 11:21:45;;;;;;;;;;;;;;;;;;5069561;28;19946;-87
2022/06/10 11:24:11;;;;;;;;;;;;;;;;;;5070341;28;19924;-88
2022/06/10 11:26:37;;;;;;;;;;;;;;;;;;5087179;28;19947;-87
2022/06/10 11:29:03;;;;;;;;;;;;;;;;;;5063356;28;20378;-89
2022/06/10 11:31:30;;;;;;;;;;;;;;;;;;5061697;28;19924;-89
2022/06/10 11:33:56;;;;;;;;;;;;;;;;;;5066064;28;19932;-88
2022/06/10 11:36:22;;;;;;;;;;;;;;;;;;5076830;28;19977;-90
2022/06/10 11:38:48;;;;;;;;;;;;;;;;;;5064964;28;20415;-89
2022/06/10 11:41:14;;;;;;;;;;;;;;;;;;5065713;28;19920;-91
2022/06/10 11:43:40;;;;;;;;;;;;;;;;;;5075070;28;19968;-89
2022/06/10 11:46:07;;;;;;;;;;;;;;;;;;5078068;28;20295;-88
2022/06/10 11:48:34;;;;;;;;;;;;;;;;;;5079102;28;20321;-87
2022/06/10 11:51:00;;;;;;;;;;;;;;;;;;5059736;28;19924;-84
2022/06/10 11:53:26;;;;;;;;;;;;;;;;;;5087851;28;19947;-84
2022/06/10 11:59:42;;;;;;;;;;;;;;;;;;5072664;28;19931;-82
2022/06/10 12:01:23;;;;;;;;;;;;;;;;;;5079513;28;19981;-84
2022/06/10 12:03:49;;;;;;;;;;;;;;;;;;5078507;28;20016;-82
2022/06/10 12:06:15;;;;;;;;;;;;;;;;;;5072659;28;20393;-84
2022/06/10 12:08:41;;;;;;;;;;;;;;;;;;5081461;28;19950;-87
2022/06/10 12:11:06;;;;;;;;;;;;;;;;;;5080074;28;19963;-92
2022/06/10 12:13:32;;;;;;;;;;;;;;;;;;5077051;28;19989;-91
2022/06/10 12:15:58;;;;;;;;;;;;;;;;;;5060580;28;19924;-91
2022/06/10 12:18:24;;;;;;;;;;;;;;;;;;5074604;28;19971;-90
2022/06/10 12:20:50;;;;;;;;;;;;;;;;;;5068970;28;20321;-87
2022/06/10 12:23:16;;;;;;;;;;;;;;;;;;5065637;28;20289;-87
2022/06/10 12:25:42;;;;;;;;;;;;;;;;;;5057938;28;19924;-87
2022/06/10 12:28:08;;;;;;;;;;;;;;;;;;5098088;28;20286;-86
2022/06/10 12:30:35;;;;;;;;;;;;;;;;;;5060413;28;19928;-84
2022/06/10 12:33:01;;;;;;;;;;;;;;;;;;5074934;28;19923;-90
2022/06/10 12:35:28;;;;;;;;;;;;;;;;;;5076196;28;19928;-88
2022/06/10 12:37:54;;;;;;;;;;;;;;;;;;5082756;28;19932;-87
2022/06/10 12:40:20;;;;;;;;;;;;;;;;;;5060208;28;19989;-86
2022/06/10 12:42:46;;;;;;;;;;;;;;;;;;5062820;28;19924;-86
2022/06/10 12:45:12;;;;;;;;;;;;;;;;;;5062433;28;20006;-86
2022/06/10 12:47:38;;;;;;;;;;;;;;;;;;5089893;28;19924;-84
2022/06/10 12:50:04;;;;;;;;;;;;;;;;;;5076612;28;19931;-85
2022/06/10 12:52:30;;;;;;;;;;;;;;;;;;5069261;28;19928;-86
2022/06/10 12:54:56;;;;;;;;;;;;;;;;;;5061496;28;19935;-86
2022/06/10 12:57:22;;;;;;;;;;;;;;;;;;5063849;28;19924;-85
2022/06/10 12:59:48;;;;;;;;;;;;;;;;;;5078308;28;20000;-86
2022/06/10 13:02:14;;;;;;;;;;;;;;;;;;5058052;28;20351;-85
2022/06/10 13:04:40;;;;;;;;;;;;;;;;;;5066560;28;20278;-86
2022/06/10 13:07:06;;;;;;;;;;;;;;;;;;5061739;28;19931;-86
2022/06/10 13:09:33;;;;;;;;;;;;;;;;;;5068785;28;19920;-86
2022/06/10 13:11:59;;;;;;;;;;;;;;;;;;5057890;28;19924;-86
2022/06/10 13:14:25;;;;;;;;;;;;;;;;;;5060940;28;19930;-87
2022/06/10 13:16:51;;;;;;;;;;;;;;;;;;5068238;28;19965;-86
2022/06/10 13:19:17;;;;;;;;;;;;;;;;;;5083353;28;20286;-86
2022/06/10 13:21:42;;;;;;;;;;;;;;;;;;5073675;28;19924;-86
2022/06/10 13:24:08;;;;;;;;;;;;;;;;;;5056778;28;19924;-87
2022/06/10 13:26:35;;;;;;;;;;;;;;;;;;5057594;28;19925;-87
2022/06/10 13:29:01;;;;;;;;;;;;;;;;;;5072427;28;20260;-87
2022/06/10 13:31:26;;;;;;;;;;;;;;;;;;5079185;28;19931;-87
2022/06/10 13:33:54;;;;;;;;;;;;;;;;;;5090825;28;19967;-86
2022/06/10 13:36:20;;;;;;;;;;;;;;;;;;5065698;28;19924;-86
2022/06/10 13:38:46;;;;;;;;;;;;;;;;;;5062122;28;19924;-86
2022/06/10 13:43:56;;;;;;;;;;;;;;;;;;5091547;28;19935;-86
2022/06/10 13:46:22;;;;;;;;;;;;;;;;;;5068976;28;19947;-86
2022/06/10 13:48:50;;;;;;;;;;;;;;;;;;5072662;28;20365;-86
2022/06/10 13:51:24;;;;;;;;;;;;;;;;;;5079741;28;20047;-86
2022/06/10 13:53:54;;;;;;;;;;;;;;;;;;5065328;28;19924;-87
2022/06/10 13:56:20;;;;;;;;;;;;;;;;;;5077270;28;19939;-86
2022/06/10 13:58:46;;;;;;;;;;;;;;;;;;5086388;28;19931;-86
2022/06/10 14:01:12;;;;;;;;;;;;;;;;;;5063319;28;19931;-86
2022/06/10 14:03:38;;;;;;;;;;;;;;;;;;5060047;28;20006;-87
2022/06/10 14:06:04;;;;;;;;;;;;;;;;;;5068752;28;20367;-88
2022/06/10 14:08:30;;;;;;;;;;;;;;;;;;5069384;28;19930;-87
2022/06/10 14:10:56;;;;;;;;;;;;;;;;;;5061968;28;20329;-86
2022/06/10 14:13:22;;;;;;;;;;;;;;;;;;5069339;28;20293;-86
2022/06/10 14:15:48;;;;;;;;;;;;;;;;;;5061358;28;19932;-86
2022/06/10 14:18:14;;;;;;;;;;;;;;;;;;5063559;28;19946;-86
2022/06/10 14:20:40;;;;;;;;;;;;;;;;;;5073617;28;19924;-87
2022/06/10 14:23:07;;;;;;;;;;;;;;;;;;5064459;28;20290;-86
2022/06/10 14:25:34;;;;;;;;;;;;;;;;;;5078423;28;19946;-87
2022/06/10 14:28:00;;;;;;;;;;;;;;;;;;5066325;28;20344;-87
2022/06/10 14:30:26;;;;;;;;;;;;;;;;;;5080468;28;19928;-88
2022/06/10 14:32:52;;;;;;;;;;;;;;;;;;5078758;28;20476;-86
2022/06/10 14:35:18;;;;;;;;;;;;;;;;;;5075243;28;20367;-86
2022/06/10 14:37:45;;;;;;;;;;;;;;;;;;5066392;28;19928;-87
2022/06/10 14:40:11;;;;;;;;;;;;;;;;;;5071670;28;20017;-86
2022/06/10 14:42:37;;;;;;;;;;;;;;;;;;5076817;28;19931;-87
2022/06/10 14:45:03;;;;;;;;;;;;;;;;;;5086552;28;19946;-86
2022/06/10 14:47:29;;;;;;;;;;;;;;;;;;5074255;28;20010;-86
2022/06/10 14:49:56;;;;;;;;;;;;;;;;;;5069639;28;19924;-85
2022/06/10 14:52:22;;;;;;;;;;;;;;;;;;5066105;28;20324;-86
2022/06/10 14:54:48;;;;;;;;;;;;;;;;;;5064057;28;20337;-85
2022/06/10 14:57:14;;;;;;;;;;;;;;;;;;5088261;28;19923;-86
2022/06/10 14:59:40;;;;;;;;;;;;;;;;;;5065103;28;19924;-86
2022/06/10 15:02:06;;;;;;;;;;;;;;;;;;5067855;28;19974;-86
2022/06/10 15:04:32;;;;;;;;;;;;;;;;;;5088993;28;19998;-86
2022/06/10 15:06:59;;;;;;;;;;;;;;;;;;5059916;28;19924;-85
2022/06/10 15:09:25;;;;;;;;;;;;;;;;;;5062681;28;20260;-85
2022/06/10 15:11:51;;;;;;;;;;;;;;;;;;5083944;28;19939;-86
2022/06/10 15:14:17;;;;;;;;;;;;;;;;;;5069370;28;19932;-86
2022/06/10 15:16:43;;;;;;;;;;;;;;;;;;5064316;28;19973;-86
2022/06/10 15:19:10;;;;;;;;;;;;;;;;;;5063040;28;20279;-86
2022/06/10 15:21:36;;;;;;;;;;;;;;;;;;5062961;28;19949;-86
2022/06/10 15:24:02;;;;;;;;;;;;;;;;;;5078468;28;19928;-85
2022/06/10 15:26:28;;;;;;;;;;;;;;;;;;5058989;28;19924;-87
2022/06/10 15:28:55;;;;;;;;;;;;;;;;;;5066634;28;20010;-85
2022/06/10 15:31:21;;;;;;;;;;;;;;;;;;5078604;28;19931;-87
2022/06/10 15:33:47;;;;;;;;;;;;;;;;;;5066738;28;19924;-85
2022/06/10 15:41:43;;;;;;;;;;;;;;;;;;5075770;28;19931;-87
2022/06/10 15:44:09;;;;;;;;;;;;;;;;;;5077211;28;19924;-87
2022/06/10 15:46:35;;;;;;;;;;;;;;;;;;5075594;28;19932;-86
2022/06/10 15:49:01;;;;;;;;;;;;;;;;;;5067415;28;20355;-86
2022/06/10 15:51:27;;;;;;;;;;;;;;;;;;5058988;28;20313;-86
2022/06/10 15:53:53;;;;;;;;;;;;;;;;;;5061289;28;19931;-87
2022/06/10 15:59:03;;;;;;;;;;;;;;;;;;5084856;28;19982;-86
2022/06/10 16:01:29;;;;;;;;;;;;;;;;;;5070966;28;19990;-86
2022/06/10 16:03:56;;;;;;;;;;;;;;;;;;5057546;28;19925;-87
2022/06/10 16:06:22;;;;;;;;;;;;;;;;;;5081956;28;20278;-87
2022/06/10 16:08:48;;;;;;;;;;;;;;;;;;5061387;28;19935;-86
2022/06/10 16:11:14;;;;;;;;;;;;;;;;;;5063274;28;19924;-86
2022/06/10 16:13:40;;;;;;;;;;;;;;;;;;5058278;28;20383;-87
2022/06/10 16:16:06;;;;;;;;;;;;;;;;;;5076581;28;19967;-87
2022/06/10 16:18:32;;;;;;;;;;;;;;;;;;5074837;28;19923;-87
2022/06/10 16:20:58;;;;;;;;;;;;;;;;;;5081388;28;20436;-86
2022/06/10 16:23:24;;;;;;;;;;;;;;;;;;5060105;28;19971;-87
2022/06/10 16:25:50;;;;;;;;;;;;;;;;;;5068211;28;19924;-86
2022/06/10 16:28:16;;;;;;;;;;;;;;;;;;5065632;28;19986;-85
2022/06/10 16:30:44;;;;;;;;;;;;;;;;;;5062961;28;19931;-86
2022/06/10 16:33:11;;;;;;;;;;;;;;;;;;5072108;28;19934;-86
2022/06/10 16:35:39;;;;;;;;;;;;;;;;;;5059711;28;19928;-86
2022/06/10 16:38:06;;;;;;;;;;;;;;;;;;5064509;28;20283;-86
2022/06/10 16:40:32;;;;;;;;;;;;;;;;;;5073087;28;19974;-85
2022/06/10 16:42:58;;;;;;;;;;;;;;;;;;5073853;28;19924;-84
2022/06/10 16:45:24;;;;;;;;;;;;;;;;;;5064281;28;19931;-86
2022/06/10 16:47:50;;;;;;;;;;;;;;;;;;5065316;28;19971;-84
2022/06/10 16:50:16;;;;;;;;;;;;;;;;;;5075842;28;20023;-85
2022/06/10 16:52:42;;;;;;;;;;;;;;;;;;5067738;28;19969;-86
2022/06/10 16:55:08;;;;;;;;;;;;;;;;;;5076308;28;19969;-83
2022/06/10 16:57:34;;;;;;;;;;;;;;;;;;5079464;28;20144;-94
2022/06/10 17:00:00;;;;;;;;;;;;;;;;;;5063292;28;19935;-91
2022/06/10 17:02:26;;;;;;;;;;;;;;;;;;5056545;28;19932;-89
2022/06/10 17:04:52;;;;;;;;;;;;;;;;;;5068149;28;20022;-91
2022/06/10 17:07:18;;;;;;;;;;;;;;;;;;5086464;28;20019;-86
2022/06/10 17:09:44;;;;;;;;;;;;;;;;;;5058699;28;19987;-88
2022/06/10 17:12:10;;;;;;;;;;;;;;;;;;5078543;28;20482;-87
2022/06/10 17:14:36;;;;;;;;;;;;;;;;;;5061282;28;19986;-89
2022/06/10 17:17:02;;;;;;;;;;;;;;;;;;5083680;28;19924;-90
2022/06/10 17:19:28;;;;;;;;;;;;;;;;;;5059846;28;20479;-92
2022/06/10 17:21:54;;;;;;;;;;;;;;;;;;5062049;28;20359;-89
2022/06/10 17:24:20;;;;;;;;;;;;;;;;;;5075292;28;19973;-88
2022/06/10 17:26:46;;;;;;;;;;;;;;;;;;5063530;28;20619;-87
2022/06/10 17:29:12;;;;;;;;;;;;;;;;;;5066299;28;20062;-86
2022/06/10 17:31:38;;;;;;;;;;;;;;;;;;5082915;28;19981;-91
2022/06/10 17:34:04;;;;;;;;;;;;;;;;;;5060960;28;19971;-82
2022/06/10 17:36:30;;;;;;;;;;;;;;;;;;5084292;28;19963;-91
2022/06/10 17:38:56;;;;;;;;;;;;;;;;;;5086959;28;19923;-87
2022/06/10 17:41:28;;;;;;;;;;;;;;;;;;5065184;28;19987;-90
2022/06/10 17:43:54;;;;;;;;;;;;;;;;;;5076172;28;19925;-88
2022/06/10 17:46:20;;;;;;;;;;;;;;;;;;5083865;28;20415;-89
2022/06/10 17:48:46;;;;;;;;;;;;;;;;;;5070752;28;20359;-90
2022/06/10 17:51:15;;;;;;;;;;;;;;;;;;5076729;28;20272;-89